Time;durP1;ratioP1;P1;durP2;ratioP2;P2;SDS_P1;SDS_P2;PMS_P1;PMS_P2;Temp;Humidity;BMP_temperature;BMP_pressure;BME280_temperature;BME280_humidity;BME280_pressure;Samples;Min_cycle;Max_cycle;Signal;HPM_P1;HPM_P2
2024/01/06 00:00:10;;;;;;;1.70;1.60;;;;;;;7.31;100.00;94162.59;4381043;32;20184;-62
2024/01/06 00:02:35;;;;;;;1.47;1.47;;;;;;;7.37;100.00;94164.81;4371917;32;20193;-63
2024/01/06 00:05:00;;;;;;;1.63;1.53;;;;;;;7.50;100.00;94161.31;4384206;32;20253;-63
2024/01/06 00:07:27;;;;;;;2.43;1.20;;;;;;;7.34;100.00;94167.25;4353537;32;20223;-62
2024/01/06 00:09:53;;;;;;;1.07;1.07;;;;;;;7.23;100.00;94166.75;4346015;32;20191;-63
2024/01/06 00:12:20;;;;;;;1.30;1.30;;;;;;;7.22;100.00;94165.97;4369264;32;20280;-63
2024/01/06 00:14:45;;;;;;;1.80;1.70;;;;;;;8.71;100.00;94166.25;4377957;32;20303;-64
2024/01/06 00:17:12;;;;;;;1.80;1.80;;;;;;;9.91;100.00;94149.44;4373851;32;20300;-63
2024/01/06 00:19:37;;;;;;;2.70;1.70;;;;;;;10.46;100.00;94159.97;4366322;32;20200;-64
2024/01/06 00:22:03;;;;;;;1.00;1.00;;;;;;;10.65;100.00;94154.22;4373213;32;20291;-63
2024/01/06 00:24:31;;;;;;;2.57;1.10;;;;;;;10.03;99.82;94157.50;4383473;32;20207;-64
2024/01/06 00:26:57;;;;;;;1.50;1.40;;;;;;;9.41;100.00;94152.69;4387499;32;20327;-63
2024/01/06 00:29:24;;;;;;;0.80;0.80;;;;;;;8.93;100.00;94148.37;4381200;32;20203;-63
2024/01/06 00:31:51;;;;;;;0.53;0.50;;;;;;;8.34;100.00;94157.00;4375210;32;20215;-63
2024/01/06 00:34:18;;;;;;;0.90;0.90;;;;;;;7.88;100.00;94158.25;4370279;32;20239;-64
2024/01/06 00:36:45;;;;;;;0.60;0.60;;;;;;;7.68;100.00;94161.41;4372586;32;20275;-63
2024/01/06 00:39:12;;;;;;;1.43;1.37;;;;;;;7.48;100.00;94158.19;4375174;32;20289;-63
2024/01/06 00:41:38;;;;;;;1.23;1.13;;;;;;;7.40;100.00;94150.25;4376715;32;20284;-63
2024/01/06 00:44:04;;;;;;;0.93;0.93;;;;;;;7.43;100.00;94149.63;4381799;32;20322;-63
2024/01/06 00:46:31;;;;;;;0.73;0.73;;;;;;;7.12;100.00;94155.63;4352100;32;20219;-63
2024/01/06 00:48:56;;;;;;;3.33;0.83;;;;;;;6.99;100.00;94158.34;4385731;32;20374;-63
2024/01/06 00:51:22;;;;;;;1.10;1.10;;;;;;;7.08;100.00;94156.53;4366267;32;20381;-63
2024/01/06 00:53:48;;;;;;;1.83;1.67;;;;;;;7.01;100.00;94156.97;4360060;32;20225;-63
2024/01/06 00:56:14;;;;;;;0.57;0.57;;;;;;;7.06;100.00;94145.53;4388306;32;20301;-63
2024/01/06 00:58:41;;;;;;;0.67;0.47;;;;;;;7.07;100.00;94152.34;4383828;32;20256;-63
2024/01/06 01:01:07;;;;;;;0.53;0.53;;;;;;;7.17;100.00;94144.19;4373483;32;20196;-63
2024/01/06 01:03:33;;;;;;;0.50;0.50;;;;;;;7.26;100.00;94147.69;4377744;32;20416;-63
2024/01/06 01:05:58;;;;;;;0.60;0.60;;;;;;;7.36;100.00;94147.41;4379183;32;20346;-63
2024/01/06 01:08:24;;;;;;;1.37;0.37;;;;;;;7.33;100.00;94142.75;4376677;32;20210;-63
2024/01/06 01:10:49;;;;;;;0.67;0.67;;;;;;;7.22;100.00;94150.13;4343603;32;20224;-63
2024/01/06 01:13:15;;;;;;;1.50;1.40;;;;;;;7.37;100.00;94154.25;4316104;32;20200;-63
2024/01/06 01:15:42;;;;;;;0.93;0.93;;;;;;;7.41;100.00;94149.16;4362387;32;20195;-63
2024/01/06 01:18:07;;;;;;;0.90;0.90;;;;;;;7.28;100.00;94155.28;4375327;32;20307;-63
2024/01/06 01:20:33;;;;;;;0.50;0.50;;;;;;;7.47;100.00;94154.00;4373691;32;20327;-63
2024/01/06 01:22:58;;;;;;;0.50;0.50;;;;;;;7.35;100.00;94159.06;4386585;32;20200;-63
2024/01/06 01:25:25;;;;;;;0.40;0.40;;;;;;;7.11;100.00;94148.03;4370853;32;20231;-64
2024/01/06 01:27:52;;;;;;;0.40;0.40;;;;;;;7.15;100.00;94149.78;4381648;32;20273;-63
2024/01/06 01:30:17;;;;;;;0.03;0.03;;;;;;;7.20;100.00;94159.44;4377225;32;20296;-63
2024/01/06 01:32:44;;;;;;;0.30;0.30;;;;;;;6.93;100.00;94162.16;4377121;32;20296;-63
2024/01/06 01:35:11;;;;;;;0.00;0.00;;;;;;;7.14;100.00;94160.63;4347372;32;20201;-63
2024/01/06 01:37:36;;;;;;;0.20;0.20;;;;;;;7.04;100.00;94160.88;4369078;32;20298;-63
2024/01/06 01:40:03;;;;;;;0.10;0.10;;;;;;;7.16;100.00;94161.09;4363516;32;20292;-63
2024/01/06 01:42:29;;;;;;;0.10;0.10;;;;;;;7.28;100.00;94163.97;4355644;32;20247;-63
2024/01/06 01:44:55;;;;;;;0.53;0.53;;;;;;;7.35;100.00;94158.28;4367362;32;20288;-63
2024/01/06 01:47:21;;;;;;;0.40;0.40;;;;;;;7.25;100.00;94161.94;4364163;32;20218;-63
2024/01/06 01:49:48;;;;;;;0.27;0.27;;;;;;;7.19;100.00;94166.56;4352070;32;20323;-63
2024/01/06 01:52:15;;;;;;;0.20;0.20;;;;;;;7.14;100.00;94169.31;4372742;32;20221;-63
2024/01/06 01:54:44;;;;;;;0.53;0.53;;;;;;;7.34;100.00;94175.97;4373252;32;20299;-63
2024/01/06 01:57:15;;;;;;;0.67;0.63;;;;;;;7.18;100.00;94169.50;4375223;32;20291;-63
2024/01/06 01:59:52;;;;;;;0.20;0.20;;;;;;;7.21;100.00;94174.16;4377047;32;20280;-63
2024/01/06 02:02:18;;;;;;;0.50;0.33;;;;;;;7.21;100.00;94171.53;4372206;32;20292;-63
2024/01/06 02:04:45;;;;;;;1.37;0.40;;;;;;;7.05;100.00;94170.34;4338555;32;20372;-63
2024/01/06 02:07:11;;;;;;;0.50;0.50;;;;;;;7.14;100.00;94173.81;4378969;32;20227;-63
2024/01/06 02:09:36;;;;;;;0.63;0.63;;;;;;;7.19;100.00;94176.31;4372152;32;20303;-63
2024/01/06 02:12:02;;;;;;;0.70;0.70;;;;;;;7.21;100.00;94182.09;4369523;32;20228;-63
2024/01/06 02:14:29;;;;;;;0.50;0.50;;;;;;;6.93;100.00;94177.97;4384449;32;20184;-63
2024/01/06 02:16:56;;;;;;;0.40;0.40;;;;;;;7.01;100.00;94175.44;4370016;32;20325;-63
2024/01/06 02:19:21;;;;;;;0.53;0.53;;;;;;;7.08;100.00;94181.03;4328164;32;20391;-63
2024/01/06 02:21:57;;;;;;;0.63;0.63;;;;;;;6.82;100.00;94172.94;4357738;32;20292;-63
2024/01/06 02:24:22;;;;;;;0.50;0.50;;;;;;;6.74;100.00;94171.00;4380392;32;20424;-63
2024/01/06 02:26:47;;;;;;;0.20;0.20;;;;;;;6.90;100.00;94174.88;4370782;32;20296;-63
2024/01/06 02:29:13;;;;;;;0.27;0.27;;;;;;;6.79;100.00;94168.28;4388016;32;20192;-63
2024/01/06 02:31:39;;;;;;;0.20;0.20;;;;;;;6.54;100.00;94176.72;4373302;32;20231;-64
2024/01/06 02:34:07;;;;;;;0.30;0.30;;;;;;;6.62;100.00;94178.66;4382815;32;20287;-64
2024/01/06 02:36:33;;;;;;;0.40;0.33;;;;;;;6.80;100.00;94174.31;4383879;32;20337;-63
2024/01/06 02:38:58;;;;;;;0.20;0.20;;;;;;;6.66;100.00;94170.94;4349373;32;20299;-63
2024/01/06 02:41:26;;;;;;;0.43;0.43;;;;;;;6.76;100.00;94173.34;4350642;32;20278;-63
2024/01/06 02:43:53;;;;;;;0.40;0.40;;;;;;;6.88;100.00;94174.38;4369402;32;20193;-63
2024/01/06 02:46:20;;;;;;;0.30;0.30;;;;;;;7.02;100.00;94178.84;4360208;32;20284;-64
2024/01/06 02:48:48;;;;;;;0.00;0.00;;;;;;;7.01;100.00;94179.91;4350330;32;20303;-64
2024/01/06 02:51:15;;;;;;;0.10;0.10;;;;;;;6.92;100.00;94185.13;4364485;32;20282;-63
2024/01/06 02:53:40;;;;;;;0.47;0.47;;;;;;;6.72;100.00;94188.97;4376055;32;20343;-63
2024/01/06 02:56:10;;;;;;;0.20;0.20;;;;;;;6.87;100.00;94187.84;4382969;32;20298;-64
2024/01/06 02:58:38;;;;;;;0.10;0.10;;;;;;;6.67;100.00;94190.94;4345725;32;20195;-63
2024/01/06 03:01:03;;;;;;;0.30;0.30;;;;;;;6.65;100.00;94193.09;4364573;32;20277;-64
2024/01/06 03:03:30;;;;;;;0.40;0.40;;;;;;;6.44;100.00;94198.03;4387261;32;20295;-63
2024/01/06 03:05:56;;;;;;;0.20;0.20;;;;;;;6.78;100.00;94193.06;4358467;32;20236;-63
2024/01/06 03:08:23;;;;;;;0.20;0.20;;;;;;;6.87;100.00;94185.22;4390835;32;20273;-63
2024/01/06 03:10:50;;;;;;;0.43;0.43;;;;;;;6.84;100.00;94189.25;4382361;32;20287;-63
2024/01/06 03:13:15;;;;;;;0.43;0.43;;;;;;;7.04;100.00;94189.88;4370199;32;20325;-63
2024/01/06 03:15:42;;;;;;;1.47;0.50;;;;;;;7.12;100.00;94191.78;4349958;32;20305;-63
2024/01/06 03:18:13;;;;;;;0.20;0.20;;;;;;;6.93;100.00;94191.94;4374751;32;20252;-63
2024/01/06 03:20:41;;;;;;;0.30;0.30;;;;;;;7.10;100.00;94196.56;4369402;32;20347;-63
2024/01/06 03:23:07;;;;;;;0.40;0.40;;;;;;;7.30;100.00;94204.00;4365560;32;20307;-63
2024/01/06 03:25:32;;;;;;;0.10;0.10;;;;;;;7.04;100.00;94200.41;4363739;32;20288;-63
2024/01/06 03:27:57;;;;;;;0.30;0.30;;;;;;;7.03;100.00;94198.84;4389173;32;20233;-63
2024/01/06 03:30:24;;;;;;;7.17;0.50;;;;;;;7.10;100.00;94199.19;4373116;32;20280;-63
2024/01/06 03:32:49;;;;;;;0.93;0.20;;;;;;;6.97;100.00;94206.09;4380375;32;20208;-64
2024/01/06 03:35:15;;;;;;;0.57;0.57;;;;;;;6.91;100.00;94207.28;4393666;32;20306;-63
2024/01/06 03:37:41;;;;;;;0.53;0.53;;;;;;;6.98;100.00;94207.66;4377829;32;20231;-63
2024/01/06 03:40:08;;;;;;;0.30;0.30;;;;;;;6.65;100.00;94212.31;4327689;32;20189;-63
2024/01/06 03:42:36;;;;;;;0.83;0.20;;;;;;;6.19;100.00;94207.97;4361788;32;20226;-63
2024/01/06 03:45:03;;;;;;;0.17;0.17;;;;;;;6.07;100.00;94210.28;4372812;32;20304;-63
2024/01/06 03:47:31;;;;;;;0.50;0.50;;;;;;;6.13;100.00;94203.88;4334911;32;20301;-63
2024/01/06 03:49:56;;;;;;;0.33;0.33;;;;;;;6.27;100.00;94200.44;4363618;32;20334;-63
2024/01/06 03:52:21;;;;;;;0.40;0.40;;;;;;;6.00;100.00;94206.50;4382526;32;20371;-63
2024/01/06 03:54:48;;;;;;;0.43;0.43;;;;;;;5.93;100.00;94204.25;4330266;32;20275;-63
2024/01/06 03:57:14;;;;;;;0.50;0.50;;;;;;;5.85;100.00;94204.88;4351709;32;20188;-63
2024/01/06 03:59:41;;;;;;;0.10;0.10;;;;;;;6.03;100.00;94211.16;4369526;32;20273;-63
2024/01/06 04:02:09;;;;;;;0.67;0.67;;;;;;;6.07;100.00;94212.94;4370050;32;20273;-63
2024/01/06 04:04:35;;;;;;;0.30;0.30;;;;;;;6.05;100.00;94215.06;4358545;32;20350;-63
2024/01/06 04:07:01;;;;;;;0.30;0.30;;;;;;;6.07;100.00;94214.78;4365057;32;20276;-63
2024/01/06 04:09:27;;;;;;;0.20;0.20;;;;;;;6.10;100.00;94208.94;4374466;32;20201;-63
2024/01/06 04:11:54;;;;;;;0.37;0.37;;;;;;;6.04;100.00;94221.41;4349765;32;20372;-60
2024/01/06 04:14:19;;;;;;;0.13;0.13;;;;;;;6.14;100.00;94223.87;4344233;32;20292;-60
2024/01/06 04:16:45;;;;;;;0.37;0.37;;;;;;;6.14;100.00;94223.87;4333520;32;20331;-60
2024/01/06 04:19:12;;;;;;;0.00;0.00;;;;;;;6.28;100.00;94225.72;4358988;32;20216;-60
2024/01/06 04:21:39;;;;;;;0.23;0.23;;;;;;;6.25;100.00;94234.19;4375288;32;20275;-59
2024/01/06 04:24:07;;;;;;;0.47;0.30;;;;;;;6.27;100.00;94234.69;4377330;32;20288;-59
2024/01/06 04:26:33;;;;;;;0.40;0.40;;;;;;;6.29;100.00;94237.81;4378049;32;20351;-61
2024/01/06 04:28:58;;;;;;;0.30;0.30;;;;;;;6.35;100.00;94247.19;4366146;32;20396;-60
2024/01/06 04:31:23;;;;;;;0.43;0.33;;;;;;;6.13;100.00;94240.72;4347125;32;20257;-61
2024/01/06 04:33:50;;;;;;;0.43;0.40;;;;;;;6.16;100.00;94245.41;4370776;32;20200;-60
2024/01/06 04:36:16;;;;;;;0.50;0.20;;;;;;;6.07;100.00;94241.09;4359245;32;20215;-60
2024/01/06 04:38:42;;;;;;;0.20;0.20;;;;;;;6.16;100.00;94244.63;4330675;32;20372;-59
2024/01/06 04:41:09;;;;;;;0.10;0.10;;;;;;;6.14;100.00;94242.28;4340517;32;20323;-60
2024/01/06 04:43:35;;;;;;;0.00;0.00;;;;;;;6.07;100.00;94247.16;4378314;32;20252;-60
2024/01/06 04:46:00;;;;;;;0.17;0.17;;;;;;;5.94;100.00;94245.28;4364394;32;20284;-60
2024/01/06 04:48:27;;;;;;;0.03;0.03;;;;;;;5.81;100.00;94246.03;4377251;32;20291;-61
2024/01/06 04:50:55;;;;;;;0.20;0.20;;;;;;;5.82;100.00;94244.94;4364771;32;20282;-60
2024/01/06 04:53:20;;;;;;;0.30;0.30;;;;;;;5.79;100.00;94251.59;4381576;32;20305;-60
2024/01/06 04:55:47;;;;;;;0.17;0.13;;;;;;;5.80;100.00;94257.62;4391433;32;20287;-60
2024/01/06 04:58:12;;;;;;;0.00;0.00;;;;;;;5.90;100.00;94254.84;4382363;32;20197;-60
2024/01/06 05:00:37;;;;;;;0.10;0.10;;;;;;;5.63;100.00;94257.38;4374635;32;20341;-60
2024/01/06 05:03:03;;;;;;;0.43;0.13;;;;;;;5.74;100.00;94267.44;4364230;32;20325;-62
2024/01/06 05:05:31;;;;;;;0.00;0.00;;;;;;;5.66;100.00;94267.31;4370417;32;20215;-60
2024/01/06 05:07:58;;;;;;;0.30;0.30;;;;;;;5.69;100.00;94272.78;4376537;32;20211;-59
2024/01/06 05:10:23;;;;;;;0.00;0.00;;;;;;;5.62;100.00;94266.31;4355122;32;20383;-60
2024/01/06 05:12:49;;;;;;;0.10;0.10;;;;;;;5.67;100.00;94269.66;4386353;32;20337;-59
2024/01/06 05:15:16;;;;;;;0.07;0.07;;;;;;;5.68;100.00;94275.69;4363494;32;20200;-60
2024/01/06 05:17:41;;;;;;;0.00;0.00;;;;;;;5.74;100.00;94274.56;4360082;32;20368;-59
2024/01/06 05:20:07;;;;;;;0.00;0.00;;;;;;;5.56;100.00;94281.44;4381069;32;20330;-59
2024/01/06 05:22:33;;;;;;;0.10;0.00;;;;;;;5.68;100.00;94288.84;4377328;32;20205;-63
2024/01/06 05:24:59;;;;;;;0.10;0.10;;;;;;;5.64;100.00;94291.28;4344696;32;20311;-60
2024/01/06 05:27:26;;;;;;;0.40;0.07;;;;;;;5.67;100.00;94285.44;4358906;32;20189;-59
2024/01/06 05:29:53;;;;;;;0.00;0.00;;;;;;;5.57;100.00;94292.72;4376509;32;20306;-59
2024/01/06 05:32:20;;;;;;;0.20;0.20;;;;;;;5.50;100.00;94293.88;4378761;32;20288;-59
2024/01/06 05:34:46;;;;;;;0.13;0.13;;;;;;;5.57;100.00;94295.34;4373885;32;20289;-60
2024/01/06 05:37:13;;;;;;;0.00;0.00;;;;;;;5.53;100.00;94285.41;4371152;32;20409;-60
2024/01/06 05:39:40;;;;;;;0.00;0.00;;;;;;;5.27;100.00;94297.38;4366101;32;20293;-60
2024/01/06 05:42:10;;;;;;;0.13;0.13;;;;;;;5.37;100.00;94294.59;4352019;32;20284;-59
2024/01/06 05:44:37;;;;;;;0.10;0.10;;;;;;;5.46;100.00;94303.38;4367363;32;20288;-60
2024/01/06 05:47:03;;;;;;;0.00;0.00;;;;;;;5.49;100.00;94308.09;4344848;32;20317;-60
2024/01/06 05:49:28;;;;;;;0.00;0.00;;;;;;;5.42;100.00;94312.91;4375377;32;20307;-60
2024/01/06 05:51:55;;;;;;;0.03;0.03;;;;;;;5.59;100.00;94309.78;4363458;32;20220;-60
2024/01/06 05:54:21;;;;;;;0.00;0.00;;;;;;;5.73;100.00;94320.34;4366570;32;20278;-60
2024/01/06 05:56:46;;;;;;;0.30;0.30;;;;;;;5.60;100.00;94327.12;4378649;32;20288;-60
2024/01/06 05:59:14;;;;;;;0.00;0.00;;;;;;;5.53;100.00;94332.75;4391594;32;20367;-60
2024/01/06 06:01:40;;;;;;;0.07;0.07;;;;;;;5.58;100.00;94324.00;4380957;32;20189;-59
2024/01/06 06:04:06;;;;;;;0.30;0.30;;;;;;;5.60;100.00;94337.66;4379309;32;20288;-60
2024/01/06 06:06:32;;;;;;;0.13;0.07;;;;;;;5.61;100.00;94333.19;4386708;32;20199;-60
2024/01/06 06:08:59;;;;;;;0.10;0.10;;;;;;;5.59;100.00;94343.19;4327971;32;20307;-60
2024/01/06 06:11:25;;;;;;;0.27;0.27;;;;;;;5.45;100.00;94349.16;4383712;32;20248;-60
2024/01/06 06:13:51;;;;;;;0.20;0.20;;;;;;;5.44;100.00;94350.22;4377407;32;20291;-59
2024/01/06 06:16:18;;;;;;;0.30;0.30;;;;;;;5.46;100.00;94353.34;4380421;32;20184;-59
2024/01/06 06:18:44;;;;;;;0.17;0.17;;;;;;;5.68;100.00;94355.41;4376331;32;20284;-60
2024/01/06 06:21:10;;;;;;;0.27;0.27;;;;;;;5.53;100.00;94366.94;4376746;32;20303;-61
2024/01/06 06:23:35;;;;;;;0.20;0.20;;;;;;;5.40;100.00;94369.50;4383935;32;20384;-60
2024/01/06 06:26:08;;;;;;;0.10;0.10;;;;;;;5.33;100.00;94369.06;4386335;32;20185;-60
2024/01/06 06:28:36;;;;;;;0.30;0.30;;;;;;;5.27;100.00;94375.44;4389473;32;20219;-60
2024/01/06 06:31:03;;;;;;;0.20;0.20;;;;;;;5.12;100.00;94376.44;4370423;32;20288;-59
2024/01/06 06:33:30;;;;;;;0.40;0.40;;;;;;;5.08;100.00;94378.06;4381432;32;20335;-59
2024/01/06 06:35:56;;;;;;;0.40;0.40;;;;;;;5.09;100.00;94383.03;4382017;32;25924;-60
2024/01/06 06:38:24;;;;;;;0.20;0.20;;;;;;;5.02;100.00;94381.81;4350724;32;20286;-60
2024/01/06 06:40:50;;;;;;;0.33;0.33;;;;;;;5.05;100.00;94382.03;4374844;32;20214;-60
2024/01/06 06:43:15;;;;;;;0.13;0.13;;;;;;;4.99;100.00;94391.03;4379725;32;20300;-60
2024/01/06 06:45:42;;;;;;;1.00;0.87;;;;;;;4.97;100.00;94397.66;4359921;32;20211;-59
2024/01/06 06:48:07;;;;;;;0.20;0.20;;;;;;;4.95;100.00;94394.53;4353200;32;20285;-60
2024/01/06 06:50:32;;;;;;;0.33;0.33;;;;;;;5.03;100.00;94401.78;4386289;32;20356;-60
2024/01/06 06:52:59;;;;;;;0.97;0.40;;;;;;;4.92;100.00;94398.50;4360637;32;20227;-59
2024/01/06 06:55:27;;;;;;;0.50;0.50;;;;;;;4.89;100.00;94396.41;4365496;32;20289;-60
2024/01/06 06:57:52;;;;;;;0.20;0.20;;;;;;;5.07;100.00;94402.78;4380460;32;20284;-60
2024/01/06 07:00:19;;;;;;;0.43;0.40;;;;;;;4.97;100.00;94400.28;4378055;32;20302;-59
2024/01/06 07:02:45;;;;;;;0.30;0.30;;;;;;;5.00;100.00;94392.59;4359883;32;20200;-59
2024/01/06 07:05:10;;;;;;;0.57;0.23;;;;;;;5.04;100.00;94393.59;4365833;32;20369;-60
2024/01/06 07:07:37;;;;;;;0.20;0.20;;;;;;;5.15;100.00;94394.28;4348975;32;20209;-61
2024/01/06 07:10:06;;;;;;;0.30;0.30;;;;;;;5.13;100.00;94401.66;4381748;32;20245;-60
2024/01/06 07:12:32;;;;;;;0.43;0.43;;;;;;;4.96;100.00;94407.37;4373133;32;20318;-59
2024/01/06 07:14:58;;;;;;;0.30;0.30;;;;;;;4.87;100.00;94400.38;4356950;32;20292;-60
2024/01/06 07:17:24;;;;;;;0.10;0.10;;;;;;;4.74;100.00;94400.00;4378888;32;20267;-59
2024/01/06 07:19:50;;;;;;;0.30;0.30;;;;;;;4.90;100.00;94403.25;4356584;32;20288;-59
2024/01/06 07:22:19;;;;;;;0.10;0.10;;;;;;;4.88;100.00;94407.19;4374719;32;20229;-60
2024/01/06 07:24:46;;;;;;;1.70;0.50;;;;;;;4.89;100.00;94411.41;4380596;32;20192;-60
2024/01/06 07:27:11;;;;;;;0.23;0.23;;;;;;;4.82;100.00;94415.13;4345067;32;20277;-60
2024/01/06 07:29:38;;;;;;;0.20;0.20;;;;;;;4.83;100.00;94418.53;4369733;32;20367;-60
2024/01/06 07:32:06;;;;;;;0.30;0.30;;;;;;;4.83;100.00;94419.31;4371572;32;20199;-63
2024/01/06 07:34:32;;;;;;;0.23;0.23;;;;;;;4.92;100.00;94421.34;4383869;32;20272;-60
2024/01/06 07:36:58;;;;;;;0.30;0.23;;;;;;;5.07;100.00;94418.53;4386582;32;20395;-59
2024/01/06 07:39:24;;;;;;;0.27;0.27;;;;;;;5.27;100.00;94423.56;4374177;32;20193;-59
2024/01/06 07:41:51;;;;;;;0.40;0.40;;;;;;;5.07;100.00;94426.44;4352527;32;20208;-59
2024/01/06 07:44:24;;;;;;;1.07;0.60;;;;;;;5.07;100.00;94435.09;4376966;32;20314;-59
2024/01/06 07:46:49;;;;;;;0.40;0.40;;;;;;;5.07;100.00;94429.06;4330228;32;20367;-60
2024/01/06 07:49:15;;;;;;;0.33;0.33;;;;;;;5.16;100.00;94435.28;4354951;32;20273;-60
2024/01/06 07:51:41;;;;;;;8.70;0.80;;;;;;;5.25;100.00;94444.09;4374204;32;20187;-60
2024/01/06 07:54:09;;;;;;;0.33;0.33;;;;;;;5.29;100.00;94453.00;4369052;32;20326;-60
2024/01/06 07:56:35;;;;;;;0.47;0.47;;;;;;;5.14;100.00;94451.31;4363438;32;20268;-60
2024/01/06 07:59:04;;;;;;;0.57;0.57;;;;;;;5.19;100.00;94458.38;4380299;32;20277;-59
2024/01/06 08:01:30;;;;;;;0.30;0.30;;;;;;;5.01;100.00;94462.50;4367223;32;20253;-60
2024/01/06 08:03:59;;;;;;;0.20;0.20;;;;;;;4.95;100.00;94466.25;4378757;32;20326;-60
2024/01/06 08:06:25;;;;;;;0.50;0.50;;;;;;;5.23;100.00;94469.09;4376909;32;20290;-60
2024/01/06 08:08:51;;;;;;;0.50;0.50;;;;;;;4.94;100.00;94463.91;4366877;32;20304;-59
2024/01/06 08:11:18;;;;;;;0.40;0.40;;;;;;;4.94;100.00;94466.53;4370831;32;20380;-59
2024/01/06 08:13:44;;;;;;;0.37;0.37;;;;;;;5.04;100.00;94463.78;4341835;32;20205;-60
2024/01/06 08:16:10;;;;;;;1.40;1.27;;;;;;;4.91;100.00;94465.25;4326247;32;20297;-61
2024/01/06 08:18:35;;;;;;;0.37;0.37;;;;;;;4.82;100.00;94464.28;4357489;32;20286;-62
2024/01/06 08:21:03;;;;;;;0.43;0.43;;;;;;;4.88;100.00;94472.91;4374369;32;20244;-60
2024/01/06 08:23:29;;;;;;;0.50;0.50;;;;;;;4.83;100.00;94466.63;4352784;32;20189;-60
2024/01/06 08:25:55;;;;;;;0.20;0.20;;;;;;;5.00;100.00;94471.44;4383405;32;20434;-60
2024/01/06 08:28:23;;;;;;;0.63;0.63;;;;;;;4.95;100.00;94473.34;4384667;32;20204;-61
2024/01/06 08:30:49;;;;;;;0.40;0.40;;;;;;;4.95;100.00;94475.97;4380661;32;20365;-60
2024/01/06 08:33:17;;;;;;;2.27;1.20;;;;;;;4.96;100.00;94474.94;4354783;32;20295;-60
2024/01/06 08:35:45;;;;;;;1.60;1.13;;;;;;;4.98;100.00;94467.53;4377074;32;20311;-60
2024/01/06 08:38:10;;;;;;;0.60;0.60;;;;;;;5.15;100.00;94470.50;4364846;32;20364;-61
2024/01/06 08:40:36;;;;;;;1.90;1.03;;;;;;;5.17;100.00;94476.28;4351975;32;20291;-60
2024/01/06 08:43:04;;;;;;;0.70;0.70;;;;;;;4.90;100.00;94476.03;4370249;32;20267;-60
2024/01/06 08:45:29;;;;;;;0.37;0.37;;;;;;;4.81;100.00;94481.88;4352609;32;20202;-60
2024/01/06 08:47:55;;;;;;;3.73;0.77;;;;;;;4.79;100.00;94486.62;4361538;32;20359;-60
2024/01/06 08:50:20;;;;;;;0.87;0.87;;;;;;;4.69;100.00;94478.84;4363460;32;20197;-61
2024/01/06 08:52:47;;;;;;;0.50;0.50;;;;;;;4.73;100.00;94487.75;4360025;32;20220;-60
2024/01/06 08:55:14;;;;;;;0.27;0.27;;;;;;;4.62;100.00;94485.47;4339579;32;20202;-61
2024/01/06 08:57:40;;;;;;;0.80;0.80;;;;;;;4.59;100.00;94486.81;4360444;32;20291;-60
2024/01/06 09:00:10;;;;;;;0.30;0.30;;;;;;;4.73;100.00;94490.37;4348912;32;20385;-61
2024/01/06 09:02:38;;;;;;;0.57;0.57;;;;;;;4.87;100.00;94489.72;4372513;32;20262;-60
2024/01/06 09:05:05;;;;;;;0.40;0.40;;;;;;;4.75;100.00;94493.50;4377540;32;20284;-60
2024/01/06 09:07:31;;;;;;;2.00;0.77;;;;;;;4.88;100.00;94501.78;4343613;32;20311;-60
2024/01/06 09:09:59;;;;;;;0.40;0.40;;;;;;;4.71;100.00;94499.59;4383029;32;20284;-60
2024/01/06 09:12:24;;;;;;;0.53;0.53;;;;;;;4.75;100.00;94496.13;4360848;32;20478;-61
2024/01/06 09:14:49;;;;;;;0.40;0.40;;;;;;;4.75;100.00;94505.87;4358528;32;20288;-60
2024/01/06 09:17:15;;;;;;;0.20;0.20;;;;;;;4.61;100.00;94505.69;4360772;32;20230;-60
2024/01/06 09:19:43;;;;;;;0.40;0.40;;;;;;;4.54;100.00;94505.25;4378244;32;20237;-60
2024/01/06 09:22:08;;;;;;;1.33;0.83;;;;;;;4.74;100.00;94505.06;4377594;32;20220;-60
2024/01/06 09:24:35;;;;;;;0.30;0.30;;;;;;;4.83;100.00;94502.62;4386725;32;20284;-63
2024/01/06 09:27:03;;;;;;;2.43;0.47;;;;;;;4.81;100.00;94505.53;4381616;32;20185;-60
2024/01/06 09:29:28;;;;;;;0.30;0.30;;;;;;;4.66;100.00;94507.50;4369434;32;20389;-60
2024/01/06 09:31:55;;;;;;;1.70;0.60;;;;;;;4.65;100.00;94511.19;4373312;32;20375;-60
2024/01/06 09:34:22;;;;;;;0.50;0.50;;;;;;;4.59;100.00;94512.28;4368376;32;20188;-60
2024/01/06 09:36:47;;;;;;;0.70;0.70;;;;;;;4.65;100.00;94509.34;4357780;32;20318;-60
2024/01/06 09:39:15;;;;;;;0.90;0.90;;;;;;;4.74;100.00;94510.34;4353306;32;20392;-60
2024/01/06 09:41:41;;;;;;;0.43;0.43;;;;;;;4.76;100.00;94513.47;4377996;32;20192;-60
2024/01/06 09:44:08;;;;;;;0.60;0.60;;;;;;;4.87;100.00;94511.53;4381238;32;20292;-60
2024/01/06 09:46:35;;;;;;;0.97;0.97;;;;;;;5.06;100.00;94519.47;4367339;32;20211;-60
2024/01/06 09:49:02;;;;;;;0.50;0.50;;;;;;;5.21;100.00;94521.16;4355667;32;20277;-60
2024/01/06 09:51:28;;;;;;;0.40;0.40;;;;;;;5.02;100.00;94516.62;4372181;32;20281;-60
2024/01/06 09:54:03;;;;;;;0.40;0.40;;;;;;;4.95;100.00;94520.66;4373915;32;20347;-60
2024/01/06 09:56:30;;;;;;;0.60;0.60;;;;;;;4.79;100.00;94528.66;4364492;32;20275;-60
2024/01/06 09:58:56;;;;;;;0.80;0.80;;;;;;;4.75;100.00;94521.63;4347930;32;20283;-61
2024/01/06 10:01:22;;;;;;;3.83;1.13;;;;;;;4.65;100.00;94519.84;4349334;32;20319;-60
2024/01/06 10:03:49;;;;;;;1.03;0.93;;;;;;;5.00;100.00;94523.22;4327952;32;20308;-60
2024/01/06 10:06:17;;;;;;;0.50;0.50;;;;;;;4.90;100.00;94524.09;4394878;32;20362;-60
2024/01/06 10:08:49;;;;;;;0.80;0.80;;;;;;;4.98;100.00;94522.72;4381589;32;20306;-60
2024/01/06 10:11:15;;;;;;;1.07;0.97;;;;;;;4.86;100.00;94522.31;4358137;32;20394;-61
2024/01/06 10:13:41;;;;;;;0.40;0.40;;;;;;;4.88;100.00;94517.56;4379276;32;20277;-60
2024/01/06 10:16:08;;;;;;;1.23;0.90;;;;;;;5.02;100.00;94526.34;4370943;32;20284;-61
2024/01/06 10:18:38;;;;;;;0.50;0.50;;;;;;;4.93;100.00;94528.03;4364355;32;20368;-59
2024/01/06 10:21:06;;;;;;;0.63;0.63;;;;;;;4.91;100.00;94520.41;4366313;32;20207;-66
2024/01/06 10:23:32;;;;;;;0.37;0.37;;;;;;;4.80;100.00;94509.22;4365844;32;20350;-60
2024/01/06 10:25:58;;;;;;;0.57;0.57;;;;;;;4.81;100.00;94505.53;4352484;32;20412;-61
2024/01/06 10:28:25;;;;;;;0.70;0.70;;;;;;;4.96;100.00;94507.25;4387778;32;20355;-61
2024/01/06 10:30:57;;;;;;;0.73;0.73;;;;;;;5.00;100.00;94504.81;4377768;32;20188;-60
2024/01/06 10:33:23;;;;;;;0.93;0.93;;;;;;;5.01;100.00;94501.12;4364603;32;20295;-60
2024/01/06 10:35:49;;;;;;;2.57;0.97;;;;;;;5.06;100.00;94503.72;4353026;32;20343;-61
2024/01/06 10:38:15;;;;;;;5.43;1.60;;;;;;;5.01;100.00;94509.81;4336453;32;20296;-60
2024/01/06 10:41:09;;;;;;;0.77;0.77;;;;;;;5.10;100.00;94510.78;4382779;32;20303;-60
2024/01/06 10:43:41;;;;;;;1.40;0.93;;;;;;;5.09;100.00;94505.78;4331068;32;20192;-63
2024/01/06 10:46:15;;;;;;;0.73;0.73;;;;;;;4.87;100.00;94506.25;4341550;32;20292;-62
2024/01/06 10:48:43;;;;;;;0.80;0.80;;;;;;;5.04;100.00;94509.25;4359314;32;20312;-60
2024/01/06 10:51:09;;;;;;;1.03;1.03;;;;;;;5.09;100.00;94508.41;4367036;32;20304;-60
2024/01/06 10:53:39;;;;;;;0.90;0.90;;;;;;;5.00;100.00;94500.34;4356188;32;20291;-62
2024/01/06 10:56:07;;;;;;;0.70;0.70;;;;;;;4.98;100.00;94497.25;4371916;32;20366;-61
2024/01/06 10:58:42;;;;;;;0.93;0.93;;;;;;;5.03;100.00;94504.25;4361779;32;20318;-60
2024/01/06 11:01:09;;;;;;;1.67;1.57;;;;;;;5.04;100.00;94497.94;4372300;32;20287;-61
2024/01/06 11:03:38;;;;;;;0.60;0.60;;;;;;;4.90;100.00;94489.16;4376760;32;20309;-60
2024/01/06 11:06:05;;;;;;;0.90;0.90;;;;;;;5.13;100.00;94485.78;4370224;32;20352;-60
2024/01/06 11:08:33;;;;;;;1.93;1.27;;;;;;;5.16;100.00;94495.75;4385083;32;20313;-60
2024/01/06 11:10:59;;;;;;;1.10;1.00;;;;;;;5.25;100.00;94494.03;4341636;32;20345;-60
2024/01/06 11:13:27;;;;;;;0.93;0.93;;;;;;;5.22;100.00;94493.81;4371562;32;20424;-60
2024/01/06 11:15:53;;;;;;;1.07;1.07;;;;;;;5.26;100.00;94489.56;4368249;32;20329;-60
2024/01/06 11:18:38;;;;;;;0.93;0.93;;;;;;;5.27;100.00;94491.91;4367884;32;20351;-60
2024/01/06 11:21:24;;;;;;;1.67;1.23;;;;;;;5.18;100.00;94497.03;4375226;32;20460;-60
2024/01/06 11:24:24;;;;;;;0.77;0.77;;;;;;;5.26;100.00;94485.09;4338762;32;20284;-60
2024/01/06 11:26:51;;;;;;;0.60;0.60;;;;;;;5.39;100.00;94492.31;4369472;32;20288;-60
2024/01/06 11:29:19;;;;;;;0.87;0.87;;;;;;;5.16;100.00;94491.25;4381971;32;20336;-60
2024/01/06 11:32:24;;;;;;;0.70;0.70;;;;;;;5.29;100.00;94486.38;4365908;32;20327;-60